Time;durP1;ratioP1;P1;durP2;ratioP2;P2;SDS_P1;SDS_P2;PMS_P1;PMS_P2;Temp;Humidity;BMP_temperature;BMP_pressure;BME280_temperature;BME280_humidity;BME280_pressure;Samples;Min_cycle;Max_cycle;Signal;HPM_P1;HPM_P2
2022/01/12 00:01:05;;;;;;;12.40;4.65;;;;;;;-1.67;68.31;97422.38;5105142;28;20055;-63
2022/01/12 00:03:33;;;;;;;9.85;4.13;;;;;;;-1.49;69.08;97433.63;5102897;28;20054;-63
2022/01/12 00:06:02;;;;;;;9.23;4.13;;;;;;;-1.33;68.36;97475.88;5105890;28;20495;-61
2022/01/12 00:08:31;;;;;;;10.90;3.40;;;;;;;-1.54;69.04;97448.06;5103900;28;20059;-62
2022/01/12 00:10:59;;;;;;;11.90;5.55;;;;;;;-1.05;68.65;97502.28;5105172;28;20481;-61
2022/01/12 00:13:26;;;;;;;9.48;3.50;;;;;;;-0.97;68.04;97517.97;5105010;28;20054;-61
2022/01/12 00:15:53;;;;;;;10.13;3.30;;;;;;;-1.05;67.62;97477.81;5103351;28;20497;-61
2022/01/12 00:18:21;;;;;;;9.10;3.50;;;;;;;-1.09;67.68;97477.56;5105535;28;20441;-62
2022/01/12 00:20:49;;;;;;;9.85;3.40;;;;;;;-1.42;66.79;97423.25;5104715;28;20062;-61
2022/01/12 00:23:18;;;;;;;13.77;3.67;;;;;;;-1.19;67.41;97463.25;5103828;28;20142;-63
2022/01/12 00:34:06;;;;;;;13.40;3.83;;;;;;;-0.93;67.72;97524.47;5104587;28;20524;-63
2022/01/12 00:36:33;;;;;;;8.05;3.30;;;;;;;-0.84;67.18;97517.31;5103326;28;20482;-62
2022/01/12 00:39:03;;;;;;;6.38;2.70;;;;;;;-0.78;66.00;97527.03;5103059;28;20062;-62
2022/01/12 00:41:29;;;;;;;10.15;3.75;;;;;;;-0.72;66.25;97525.91;5103357;28;20051;-61
2022/01/12 00:43:58;;;;;;;4.95;2.13;;;;;;;-0.73;66.21;97529.72;5102905;28;20050;-60
2022/01/12 00:46:27;;;;;;;9.10;3.35;;;;;;;-1.18;66.54;97457.53;5104786;28;20119;-62
2022/01/12 00:48:57;;;;;;;8.18;3.15;;;;;;;-0.72;67.32;97528.63;5104344;28;20059;-62
2022/01/12 00:51:26;;;;;;;8.35;2.90;;;;;;;-0.81;66.88;97533.06;5102511;28;20063;-62
2022/01/12 00:53:55;;;;;;;7.53;2.75;;;;;;;-0.76;66.16;97530.28;5103048;28;20055;-61
2022/01/12 00:56:22;;;;;;;13.88;4.18;;;;;;;-0.68;66.41;97516.09;5104694;28;20469;-61
2022/01/12 00:58:50;;;;;;;5.85;2.97;;;;;;;-1.16;67.66;97449.91;5104407;28;20117;-62
2022/01/12 01:01:18;;;;;;;12.45;2.97;;;;;;;-0.82;66.92;97528.72;5104251;28;20490;-63
2022/01/12 01:03:44;;;;;;;6.13;2.17;;;;;;;-0.81;66.21;97522.19;5104313;28;20057;-60
2022/01/12 01:06:12;;;;;;;12.90;3.67;;;;;;;-0.96;67.54;97525.00;5104058;28;20510;-61
2022/01/12 01:08:40;;;;;;;8.20;2.63;;;;;;;-1.00;67.33;97548.44;5104066;28;20052;-60
2022/01/12 01:11:07;;;;;;;13.68;4.38;;;;;;;-0.90;67.15;97529.34;5103996;28;20044;-62
2022/01/12 01:13:38;;;;;;;8.38;3.00;;;;;;;-0.99;68.19;97531.03;5104365;28;20437;-62
2022/01/12 01:26:53;;;;;;;9.07;3.28;;;;;;;-0.99;64.39;97547.34;5083661;28;20048;-63
2022/01/12 01:29:20;;;;;;;6.75;2.70;;;;;;;-1.08;65.67;97560.75;5082367;28;20055;-64
2022/01/12 01:31:47;;;;;;;9.63;3.15;;;;;;;-1.27;65.71;97526.38;5083387;28;20052;-59
2022/01/12 01:34:16;;;;;;;7.38;2.45;;;;;;;-1.24;66.64;97542.09;5083581;28;20044;-62
2022/01/12 01:36:44;;;;;;;12.25;2.88;;;;;;;-1.20;65.68;97557.56;5083487;28;20085;-62
2022/01/12 01:39:15;;;;;;;13.95;4.35;;;;;;;-1.23;66.62;97570.91;5084470;28;20054;-61
2022/01/12 01:41:48;;;;;;;9.48;3.00;;;;;;;-1.48;65.03;97522.16;5084056;28;20064;-63
2022/01/12 01:55:04;;;;;;;16.38;4.43;;;;;;;-1.28;65.31;97544.56;5063242;28;20227;-62
2022/01/12 01:57:32;;;;;;;6.32;2.78;;;;;;;-1.14;64.00;97571.94;5063368;28;20072;-63
2022/01/12 02:00:00;;;;;;;9.15;3.80;;;;;;;-1.16;63.26;97584.97;5063835;28;20049;-62
2022/01/12 02:02:27;;;;;;;4.05;2.08;;;;;;;-1.72;63.98;97489.44;5063905;28;20052;-64
2022/01/12 02:04:56;;;;;;;7.22;3.33;;;;;;;-1.21;65.19;97555.94;5063945;28;20052;-61
2022/01/12 02:07:24;;;;;;;15.75;4.47;;;;;;;-1.11;64.76;97593.94;5063128;28;20060;-63
2022/01/12 02:09:51;;;;;;;15.60;4.05;;;;;;;-1.86;63.95;97454.00;5063337;28;20151;-64
2022/01/12 02:12:28;;;;;;;11.55;4.20;;;;;;;-1.18;64.18;97581.72;5063116;28;20048;-64
2022/01/12 02:14:56;;;;;;;7.40;1.98;;;;;;;-1.15;63.81;97581.16;5063058;28;20059;-64
2022/01/12 02:17:30;;;;;;;11.65;3.13;;;;;;;-1.20;64.56;97584.72;5062955;28;20067;-62
2022/01/12 02:20:25;;;;;;;9.20;3.25;;;;;;;-1.19;64.80;97602.69;5061729;28;20063;-64
2022/01/12 02:37:00;;;;;;;14.88;3.65;;;;;;;-1.22;64.93;97597.81;5066495;28;20052;-60
2022/01/12 02:42:16;;;;;;;7.47;2.28;;;;;;;-1.34;63.72;97594.59;5069636;28;20048;-62
2022/01/12 02:55:44;;;;;;;5.15;1.33;;;;;;;-1.46;63.72;97623.19;5086116;28;20058;-63
2022/01/12 02:58:11;;;;;;;12.88;3.53;;;;;;;-1.35;64.49;97616.63;5086306;28;20442;-62
2022/01/12 03:03:25;;;;;;;5.40;2.10;;;;;;;-1.57;63.93;97601.53;5086297;28;20048;-61
2022/01/12 03:06:00;;;;;;;14.55;3.13;;;;;;;-1.55;64.29;97612.91;5085841;28;20079;-62
2022/01/12 03:08:28;;;;;;;19.83;2.65;;;;;;;-1.35;64.99;97643.78;5084849;28;20063;-60
2022/01/12 03:10:55;;;;;;;9.27;4.03;;;;;;;-1.36;65.90;97639.47;5085882;28;20056;-63
2022/01/12 03:13:22;;;;;;;6.35;2.42;;;;;;;-1.53;64.17;97628.13;5086363;28;20052;-63
2022/01/12 03:15:49;;;;;;;10.68;4.13;;;;;;;-1.81;64.42;97578.84;5085974;28;20044;-62
2022/01/12 03:18:16;;;;;;;18.15;4.40;;;;;;;-1.34;64.37;97608.19;5086300;28;20065;-63
2022/01/12 03:20:45;;;;;;;14.18;4.60;;;;;;;-1.42;63.47;97618.84;5084319;28;20062;-61
2022/01/12 03:23:16;;;;;;;9.50;3.63;;;;;;;-1.52;63.67;97611.56;5085679;28;20590;-63
2022/01/12 03:25:43;;;;;;;4.45;1.67;;;;;;;-1.45;63.62;97646.56;5084955;28;20052;-61
2022/01/12 03:28:10;;;;;;;9.20;3.53;;;;;;;-1.45;62.92;97635.72;5085441;28;20048;-60
2022/01/12 03:30:48;;;;;;;15.70;4.97;;;;;;;-1.60;64.42;97637.38;5085586;28;20054;-61
2022/01/12 04:09:32;;;;;;;15.05;4.95;;;;;;;-2.02;62.66;97607.13;5084923;28;20063;-64
2022/01/12 04:11:59;;;;;;;5.30;2.35;;;;;;;-1.56;62.08;97668.34;5083652;28;20063;-63
2022/01/12 04:14:26;;;;;;;11.45;3.20;;;;;;;-1.47;62.76;97676.69;5084994;28;20074;-60
2022/01/12 04:16:52;;;;;;;9.20;3.40;;;;;;;-1.97;62.04;97633.44;5082857;28;20063;-63
2022/01/12 04:19:19;;;;;;;12.20;2.38;;;;;;;-1.78;62.49;97670.59;5084727;28;20058;-63
2022/01/12 04:21:47;;;;;;;17.95;3.78;;;;;;;-1.79;62.69;97674.38;5084835;28;20060;-63
2022/01/12 04:24:14;;;;;;;11.10;2.97;;;;;;;-1.64;63.27;97696.06;5084530;28;20442;-63
2022/01/12 04:26:41;;;;;;;10.60;4.50;;;;;;;-1.78;62.91;97695.03;5084879;28;20050;-63
2022/01/12 04:29:08;;;;;;;10.90;3.05;;;;;;;-1.76;62.97;97697.47;5082912;28;20044;-63
2022/01/12 04:31:36;;;;;;;7.78;2.92;;;;;;;-1.72;63.44;97693.91;5084569;28;20051;-63
2022/01/12 04:34:04;;;;;;;8.10;3.50;;;;;;;-4.30;63.14;97288.41;5084408;28;20063;-63
2022/01/12 04:36:32;;;;;;;9.77;3.35;;;;;;;-2.43;62.72;97597.47;5084492;28;20062;-63
2022/01/12 04:38:59;;;;;;;5.57;2.25;;;;;;;-1.81;64.14;97714.59;5084736;28;20048;-63
2022/01/12 04:41:26;;;;;;;4.20;2.17;;;;;;;-1.86;64.42;97722.72;5084409;28;20048;-63
2022/01/12 04:43:53;;;;;;;6.22;2.15;;;;;;;-1.82;63.38;97712.94;5084709;28;20043;-63
2022/01/12 04:46:29;;;;;;;6.10;2.40;;;;;;;-1.76;64.29;97717.28;5082883;28;20056;-63
2022/01/12 04:51:40;;;;;;;8.73;3.38;;;;;;;-1.72;64.64;97728.38;5083578;28;20075;-63
2022/01/12 04:54:07;;;;;;;8.48;2.80;;;;;;;-2.95;64.97;97598.88;5084025;28;20051;-61
2022/01/12 04:56:34;;;;;;;6.30;2.78;;;;;;;-1.82;64.69;97742.81;5084236;28;20048;-63
2022/01/12 04:59:02;;;;;;;6.13;1.92;;;;;;;-1.75;63.58;97739.81;5084054;28;20052;-63
2022/01/12 05:01:35;;;;;;;7.57;2.35;;;;;;;-2.14;63.76;97709.75;5084540;28;20044;-61
2022/01/12 05:06:57;;;;;;;3.80;2.28;;;;;;;-2.44;64.26;97684.53;5084054;28;20052;-63
2022/01/12 05:14:58;;;;;;;4.07;2.13;;;;;;;-2.06;65.13;97777.03;5083782;28;20059;-62
2022/01/12 05:17:25;;;;;;;5.78;2.10;;;;;;;-2.11;66.01;97785.19;5082442;28;20059;-63
2022/01/12 05:19:51;;;;;;;6.53;2.58;;;;;;;-2.09;66.16;97777.59;5083936;28;20063;-62
2022/01/12 05:22:18;;;;;;;7.10;1.95;;;;;;;-2.14;66.08;97780.31;5084076;28;20510;-63
2022/01/12 05:24:45;;;;;;;9.50;2.55;;;;;;;-2.78;66.97;97686.97;5084248;28;20048;-62
2022/01/12 05:27:25;;;;;;;7.40;2.08;;;;;;;-2.85;65.40;97686.41;5083858;28;20144;-62
2022/01/12 05:29:52;;;;;;;5.13;1.73;;;;;;;-2.22;66.29;97810.69;5082031;28;20051;-63
2022/01/12 05:32:19;;;;;;;8.93;3.70;;;;;;;-2.70;66.34;97721.66;5083485;28;20059;-64
2022/01/12 05:34:45;;;;;;;6.82;1.80;;;;;;;-2.26;65.92;97804.16;5083419;28;20067;-62
2022/01/12 05:37:12;;;;;;;10.82;3.42;;;;;;;-2.35;65.66;97789.50;5083398;28;20055;-62
2022/01/12 05:39:39;;;;;;;4.55;1.90;;;;;;;-3.21;66.44;97649.53;5081685;28;20056;-61
2022/01/12 05:42:25;;;;;;;8.23;2.70;;;;;;;-2.37;65.89;97799.81;5078165;28;20487;-61
2022/01/12 05:44:51;;;;;;;7.60;3.03;;;;;;;-2.25;64.94;97805.81;5077330;28;20048;-62
2022/01/12 05:47:35;;;;;;;9.15;3.35;;;;;;;-2.64;65.34;97742.28;5083720;28;20505;-61
2022/01/12 05:50:03;;;;;;;5.80;2.53;;;;;;;-3.29;66.41;97645.41;5082853;28;20044;-62
2022/01/12 05:52:30;;;;;;;7.55;2.75;;;;;;;-3.25;67.22;97653.81;5081777;28;20050;-62
2022/01/12 05:54:57;;;;;;;8.13;3.50;;;;;;;-2.44;66.93;97807.41;5082642;28;20081;-64
2022/01/12 05:57:25;;;;;;;3.95;1.38;;;;;;;-2.21;66.24;97830.47;5081907;28;20064;-62
2022/01/12 05:59:52;;;;;;;6.10;2.33;;;;;;;-2.34;66.80;97845.38;5083537;28;20082;-63
2022/01/12 06:02:18;;;;;;;5.72;2.15;;;;;;;-2.30;66.66;97830.22;5084522;28;20060;-62
2022/01/12 06:04:45;;;;;;;7.47;2.30;;;;;;;-2.41;67.02;97827.75;5087557;28;20048;-63
2022/01/12 06:07:12;;;;;;;6.40;2.28;;;;;;;-2.27;66.92;97845.94;5086075;28;20062;-62
2022/01/12 06:09:38;;;;;;;4.82;2.28;;;;;;;-2.20;66.79;97856.53;5086173;28;20052;-61
2022/01/12 06:12:07;;;;;;;9.63;3.00;;;;;;;-2.67;65.64;97794.31;5087222;28;20473;-62
2022/01/12 06:14:34;;;;;;;7.70;3.08;;;;;;;-2.23;66.05;97847.03;5087307;28;20140;-63
2022/01/12 06:17:01;;;;;;;7.97;3.75;;;;;;;-2.20;65.26;97851.94;5085632;28;20055;-61
2022/01/12 06:19:28;;;;;;;11.48;3.47;;;;;;;-2.10;66.14;97835.66;5087679;28;20090;-62
2022/01/12 06:21:54;;;;;;;3.97;1.45;;;;;;;-2.35;65.91;97819.34;5087051;28;20052;-62
2022/01/12 06:24:21;;;;;;;4.97;1.80;;;;;;;-2.14;65.54;97856.28;5087371;28;20222;-62
2022/01/12 06:26:48;;;;;;;6.43;2.42;;;;;;;-2.07;65.39;97851.38;5086933;28;20082;-61
2022/01/12 06:31:50;;;;;;;5.50;2.72;;;;;;;-2.14;66.06;97859.00;5086964;28;20055;-63
2022/01/12 06:34:17;;;;;;;6.05;2.42;;;;;;;-2.13;65.12;97844.34;5085040;28;20127;-62
2022/01/12 06:36:44;;;;;;;11.18;2.85;;;;;;;-2.05;65.72;97851.94;5084608;28;20056;-62
2022/01/12 06:39:13;;;;;;;8.73;3.20;;;;;;;-1.98;65.75;97843.53;5086638;28;20058;-62
2022/01/12 06:41:41;;;;;;;6.18;1.73;;;;;;;-2.60;65.89;97764.25;5086810;28;20044;-61
2022/01/12 06:44:08;;;;;;;8.23;1.80;;;;;;;-1.99;64.94;97853.56;5082162;28;20433;-62
2022/01/12 06:46:35;;;;;;;8.70;2.20;;;;;;;-1.92;65.10;97859.56;5066461;28;20059;-62
2022/01/12 06:49:02;;;;;;;9.65;2.92;;;;;;;-1.94;64.95;97867.16;5064802;28;20527;-61
2022/01/12 06:51:29;;;;;;;5.47;1.85;;;;;;;-2.82;64.98;97750.94;5067510;28;20044;-61
2022/01/12 06:53:56;;;;;;;7.55;2.72;;;;;;;-2.10;65.82;97868.22;5068375;28;20199;-63
2022/01/12 06:56:25;;;;;;;4.63;2.03;;;;;;;-1.95;64.86;97889.97;5099241;28;20135;-60
2022/01/12 06:58:52;;;;;;;6.38;2.00;;;;;;;-1.98;63.98;97885.06;5075479;28;20056;-64
2022/01/12 07:01:19;;;;;;;8.25;2.97;;;;;;;-2.48;65.68;97865.97;5080221;28;20043;-62
2022/01/12 07:03:47;;;;;;;7.00;2.33;;;;;;;-2.30;65.51;97865.47;5072350;28;20055;-67
2022/01/12 07:06:14;;;;;;;7.25;2.60;;;;;;;-1.92;64.41;97900.28;5064586;28;20048;-67
2022/01/12 07:08:41;;;;;;;9.60;2.83;;;;;;;-2.32;65.81;97919.16;5065679;28;20079;-63
2022/01/12 07:11:08;;;;;;;11.68;2.53;;;;;;;-1.92;65.32;97880.44;5075716;28;20478;-65
2022/01/12 07:13:34;;;;;;;8.18;1.98;;;;;;;-1.88;64.39;97887.78;5064704;28;20083;-63
2022/01/12 07:16:02;;;;;;;6.82;2.33;;;;;;;-1.83;64.19;97885.06;5080946;28;20060;-61
2022/01/12 07:18:29;;;;;;;8.95;3.40;;;;;;;-1.87;64.18;97905.72;5084146;28;20078;-63
2022/01/12 07:20:57;;;;;;;4.50;1.70;;;;;;;-2.61;65.02;97820.38;5069056;28;20051;-62
2022/01/12 07:23:25;;;;;;;9.77;2.60;;;;;;;-1.95;65.67;97906.25;5067731;28;20052;-63
2022/01/12 07:25:52;;;;;;;7.65;2.53;;;;;;;-2.52;65.03;97885.75;5080632;28;20059;-65
2022/01/12 07:28:20;;;;;;;2.20;1.42;;;;;;;-1.98;64.90;97909.50;5067813;28;20113;-61
2022/01/12 07:30:47;;;;;;;5.40;1.40;;;;;;;-2.06;63.86;97920.88;5078254;28;20048;-65
2022/01/12 07:33:15;;;;;;;6.78;2.13;;;;;;;-1.86;64.44;97937.19;5076133;28;20049;-65
2022/01/12 07:35:42;;;;;;;7.90;2.65;;;;;;;-1.95;63.45;97892.66;5077163;28;20135;-63
2022/01/12 07:38:09;;;;;;;12.80;3.25;;;;;;;-1.89;63.52;97875.31;5073336;28;20125;-62
2022/01/12 07:40:36;;;;;;;6.43;1.58;;;;;;;-2.12;63.09;97826.94;5079287;28;20129;-66
2022/01/12 07:43:05;;;;;;;5.85;2.13;;;;;;;-1.40;62.79;97904.59;5084352;28;20612;-60
2022/01/12 07:45:33;;;;;;;4.70;2.28;;;;;;;-1.38;62.25;97937.75;5078314;28;20066;-67
2022/01/12 07:48:00;;;;;;;14.93;2.78;;;;;;;-1.19;60.43;97933.41;5068586;28;20048;-62
2022/01/12 07:50:27;;;;;;;11.18;2.65;;;;;;;-1.34;61.00;97881.81;5072102;28;20057;-66
2022/01/12 07:52:54;;;;;;;7.47;2.47;;;;;;;-2.10;60.02;97783.25;5078356;28;20054;-62
2022/01/12 07:55:21;;;;;;;7.20;2.17;;;;;;;-1.25;61.02;97891.03;5064732;28;20058;-62
2022/01/12 07:57:49;;;;;;;2.20;1.20;;;;;;;-1.09;60.19;97950.50;5064813;28;20072;-61
2022/01/12 08:00:18;;;;;;;10.25;3.83;;;;;;;-1.02;60.86;97937.47;5064740;28;20070;-64
2022/01/12 08:02:45;;;;;;;14.65;4.03;;;;;;;-1.12;60.52;97950.25;5075114;28;20078;-64
2022/01/12 08:05:12;;;;;;;6.40;2.10;;;;;;;-1.55;58.52;97857.34;5084113;28;20048;-63
2022/01/12 08:07:40;;;;;;;11.52;2.45;;;;;;;-0.88;59.48;97956.72;5067918;28;20424;-62
2022/01/12 08:10:08;;;;;;;8.27;2.58;;;;;;;-8.57;58.89;96721.22;5067123;28;20060;-62
2022/01/12 08:12:37;;;;;;;8.27;3.20;;;;;;;-1.28;59.94;97891.56;5072517;28;20055;-63
2022/01/12 08:15:06;;;;;;;8.77;2.20;;;;;;;-1.61;59.87;97872.03;5084651;28;20066;-68
2022/01/12 08:17:33;;;;;;;4.78;2.33;;;;;;;-0.66;59.32;97993.41;5072622;28;20047;-68
2022/01/12 08:20:01;;;;;;;6.93;2.28;;;;;;;-0.99;58.42;97925.22;5067678;28;20055;-68
2022/01/12 08:22:28;;;;;;;7.32;2.08;;;;;;;-0.69;57.61;97968.66;5077581;28;20584;-62
2022/01/12 08:24:55;;;;;;;7.60;2.42;;;;;;;-0.60;59.25;97996.94;5069974;28;20102;-65
2022/01/12 08:27:22;;;;;;;14.13;4.25;;;;;;;-1.60;58.11;97830.19;5075764;28;20056;-72
2022/01/12 08:29:50;;;;;;;10.38;3.38;;;;;;;-0.66;58.44;97962.66;5075877;28;20048;-60
2022/01/12 08:32:17;;;;;;;12.38;3.60;;;;;;;-0.43;57.97;97971.03;5062708;28;20135;-68
2022/01/12 08:34:44;;;;;;;7.93;2.70;;;;;;;-0.28;58.01;97983.78;5082134;28;20140;-61
2022/01/12 08:37:11;;;;;;;5.68;2.13;;;;;;;-0.20;57.50;97980.47;5083740;28;20093;-68
2022/01/12 08:39:38;;;;;;;6.20;2.28;;;;;;;-1.03;57.23;97878.75;5076705;28;20621;-69
2022/01/12 08:42:05;;;;;;;7.80;2.67;;;;;;;-0.72;56.74;97937.41;5084116;28;20093;-67
2022/01/12 08:44:38;;;;;;;;;;;;;;;-0.34;58.06;97984.88;5081572;28;20059;-66
2022/01/12 08:47:05;;;;;;;19.67;4.18;;;;;;;-0.38;57.29;97989.28;5072966;28;19931;-63
2022/01/12 08:49:32;;;;;;;8.88;4.07;;;;;;;-0.63;56.97;97918.59;5078131;28;20051;-63
2022/01/12 08:51:59;;;;;;;5.05;2.47;;;;;;;-0.79;56.75;97933.34;5082820;28;20094;-63
2022/01/12 08:54:26;;;;;;;2.95;1.52;;;;;;;-0.88;56.44;97945.84;5079804;28;20089;-63
2022/01/12 08:56:55;;;;;;;6.07;2.38;;;;;;;-1.00;57.42;97937.19;5081927;28;20052;-63
2022/01/12 08:59:22;;;;;;;3.55;1.35;;;;;;;-0.97;57.80;97925.75;5081096;28;20233;-61
2022/01/12 09:01:49;;;;;;;7.28;3.03;;;;;;;-0.75;57.93;97945.28;5081124;28;20051;-66
2022/01/12 09:04:16;;;;;;;13.98;4.38;;;;;;;-0.43;57.20;97986.56;5075191;28;20048;-69
2022/01/12 09:06:48;;;;;;;12.10;3.72;;;;;;;-0.31;58.53;98004.19;5066249;28;20044;-68
2022/01/12 09:09:14;;;;;;;7.20;2.28;;;;;;;-0.97;57.86;97855.06;5068658;28;20052;-66
2022/01/12 09:11:41;;;;;;;8.15;2.95;;;;;;;-0.09;57.76;97971.16;5081046;28;20162;-65
2022/01/12 09:14:08;;;;;;;5.47;1.92;;;;;;;-0.07;56.75;97961.66;5080929;28;20052;-64
2022/01/12 09:16:35;;;;;;;8.85;3.45;;;;;;;-1.08;55.53;97842.59;5082882;28;20063;-62
2022/01/12 09:19:02;;;;;;;8.63;3.05;;;;;;;0.10;55.93;97985.78;5079708;28;20564;-65
2022/01/12 09:21:28;;;;;;;10.65;3.35;;;;;;;0.07;56.19;97983.63;5070148;28;20595;-62
2022/01/12 09:23:55;;;;;;;6.43;1.70;;;;;;;0.17;55.11;97986.28;5071968;28;20049;-60
2022/01/12 09:26:22;;;;;;;4.72;2.28;;;;;;;0.12;56.02;98010.00;5082720;28;20044;-65
2022/01/12 09:28:49;;;;;;;7.82;3.70;;;;;;;-2.59;55.77;97576.88;5065463;28;20518;-61
2022/01/12 09:31:16;;;;;;;3.42;1.80;;;;;;;-0.30;55.88;97991.41;5067227;28;20135;-62
2022/01/12 09:33:43;;;;;;;9.38;2.83;;;;;;;-0.53;56.30;97943.03;5061498;28;20597;-69
2022/01/12 09:36:10;;;;;;;9.18;2.65;;;;;;;-2.38;56.15;97697.81;5066178;28;20578;-63
2022/01/12 09:38:37;;;;;;;8.57;3.80;;;;;;;-0.30;56.38;97969.66;5067320;28;20485;-63
2022/01/12 09:41:04;;;;;;;11.00;4.38;;;;;;;0.10;55.33;97958.53;5075013;28;20616;-61
2022/01/12 09:43:34;;;;;;;5.60;2.38;;;;;;;-0.09;55.15;97980.16;5060886;28;20070;-67
2022/01/12 09:46:02;;;;;;;2.00;1.40;;;;;;;-0.20;55.80;97964.13;5065007;28;20049;-61
2022/01/12 09:48:33;;;;;;;6.20;2.58;;;;;;;-2.88;55.66;97505.41;5078716;28;20083;-66
2022/01/12 09:51:04;;;;;;;8.98;2.38;;;;;;;-0.43;55.52;97828.72;5075246;28;20080;-63
2022/01/12 09:53:33;;;;;;;6.80;3.20;;;;;;;0.07;55.09;97937.31;5076281;28;20048;-62
2022/01/12 09:56:21;;;;;;;5.68;2.90;;;;;;;0.46;54.25;97970.84;5075802;28;20135;-65
2022/01/12 09:58:54;;;;;;;6.55;2.78;;;;;;;0.56;53.76;97967.22;5082440;28;20048;-63
2022/01/12 10:01:36;;;;;;;7.18;3.20;;;;;;;0.25;54.07;97972.09;5082779;28;20055;-61
2022/01/12 10:04:09;;;;;;;10.80;4.22;;;;;;;0.78;54.00;97960.25;5082789;28;20056;-64
2022/01/12 10:06:40;;;;;;;10.32;4.10;;;;;;;0.68;53.80;97971.22;5082890;28;20051;-64
2022/01/12 10:09:08;;;;;;;10.82;3.55;;;;;;;0.56;53.49;97961.78;5082977;28;20048;-64
2022/01/12 10:11:48;;;;;;;8.85;3.35;;;;;;;0.44;54.56;97959.44;5082900;28;20048;-62
2022/01/12 10:14:14;;;;;;;5.40;2.30;;;;;;;0.47;53.55;97967.03;5082800;28;20052;-64
2022/01/12 10:16:54;;;;;;;8.68;3.85;;;;;;;0.08;53.86;97970.81;5082540;28;20055;-61
2022/01/12 10:19:31;;;;;;;9.68;3.08;;;;;;;-0.34;54.04;97859.69;5083022;28;20060;-64
2022/01/12 10:22:00;;;;;;;8.25;3.47;;;;;;;0.49;54.32;97986.63;5082151;28;20638;-65
2022/01/12 10:24:28;;;;;;;7.43;2.78;;;;;;;-0.06;53.74;97929.75;5080962;28;20052;-62
2022/01/12 10:26:57;;;;;;;8.43;2.60;;;;;;;0.23;53.62;97973.44;5081819;28;20056;-62
2022/01/12 10:29:26;;;;;;;9.77;4.00;;;;;;;0.62;53.52;97972.38;5082741;28;20060;-62
2022/01/12 10:31:57;;;;;;;5.45;2.28;;;;;;;0.69;52.05;97961.97;5080892;28;20070;-66
2022/01/12 10:34:38;;;;;;;9.65;4.03;;;;;;;0.22;53.25;97950.88;5081389;28;20150;-65
2022/01/12 10:37:08;;;;;;;8.82;3.20;;;;;;;0.64;53.20;97963.91;5082742;28;20056;-65
2022/01/12 10:39:41;;;;;;;8.18;3.35;;;;;;;-0.18;53.32;97885.72;5081412;28;20067;-65
2022/01/12 10:42:11;;;;;;;6.43;2.35;;;;;;;0.61;53.54;97965.31;5081538;28;20079;-65
2022/01/12 10:44:43;;;;;;;8.38;4.07;;;;;;;-0.28;54.17;97883.06;5082842;28;20419;-65
2022/01/12 10:47:10;;;;;;;9.93;4.13;;;;;;;-0.08;54.22;97961.91;5082622;28;20421;-65
2022/01/12 10:49:43;;;;;;;8.45;2.63;;;;;;;-0.07;54.98;97979.88;5085932;28;20048;-61
2022/01/12 10:52:13;;;;;;;6.55;2.65;;;;;;;0.16;54.17;97946.53;5085883;28;20078;-61
2022/01/12 10:54:53;;;;;;;8.82;3.75;;;;;;;0.00;54.31;97969.50;5085701;28;20485;-61
2022/01/12 10:57:27;;;;;;;5.35;2.92;;;;;;;-0.50;54.50;97975.13;5085802;28;20060;-66
2022/01/12 11:00:06;;;;;;;12.90;5.53;;;;;;;-0.55;54.84;97961.53;5085823;28;20047;-61
2022/01/12 11:02:34;;;;;;;10.27;2.45;;;;;;;-0.68;55.49;97981.19;5086413;28;20056;-63
2022/01/12 11:05:04;;;;;;;9.07;3.88;;;;;;;-0.66;55.96;97993.41;5085806;28;20056;-63
2022/01/12 11:07:31;;;;;;;7.72;2.92;;;;;;;-0.97;56.14;97898.56;5085848;28;20056;-63
2022/01/12 11:10:01;;;;;;;8.55;3.47;;;;;;;-0.61;54.44;97978.97;5083799;28;20446;-62
2022/01/12 11:12:29;;;;;;;4.72;1.83;;;;;;;-0.65;54.82;97994.22;5083831;28;20074;-61
2022/01/12 11:14:56;;;;;;;9.63;2.50;;;;;;;-0.60;56.32;97986.06;5085311;28;20048;-65
2022/01/12 11:17:22;;;;;;;7.68;2.53;;;;;;;-0.72;55.50;97988.25;5085186;28;20056;-60
2022/01/12 11:20:04;;;;;;;8.70;3.10;;;;;;;-1.01;56.00;97993.44;5084327;28;20659;-64
2022/01/12 11:22:37;;;;;;;3.58;1.58;;;;;;;-0.91;55.90;98099.50;5084104;28;20074;-59
2022/01/12 11:25:16;;;;;;;4.60;1.55;;;;;;;-0.70;55.96;97986.06;5083683;28;20067;-65
2022/01/12 11:27:43;;;;;;;7.50;3.13;;;;;;;-0.88;55.40;97990.19;5085665;28;20052;-60
2022/01/12 11:30:21;;;;;;;13.25;2.75;;;;;;;-0.97;55.85;97952.94;5085484;28;20202;-60
2022/01/12 11:32:58;;;;;;;5.38;2.72;;;;;;;-0.96;55.06;97960.00;5085731;28;20048;-64
2022/01/12 11:35:32;;;;;;;5.32;1.88;;;;;;;-0.79;55.74;97998.63;5085856;28;20070;-65
2022/01/12 11:38:04;;;;;;;5.80;2.88;;;;;;;-0.94;55.84;97977.69;5084792;28;20085;-64
2022/01/12 11:40:40;;;;;;;8.70;2.72;;;;;;;-0.95;55.67;97984.19;5085562;28;20052;-63
2022/01/12 11:43:29;;;;;;;5.25;1.92;;;;;;;-1.16;56.48;97998.09;5085624;28;20047;-61
2022/01/12 11:46:05;;;;;;;6.70;1.85;;;;;;;-1.11;56.98;98001.63;5083850;28;20449;-60
2022/01/12 11:48:51;;;;;;;5.82;2.75;;;;;;;-1.27;56.33;97985.59;5085608;28;20052;-64
2022/01/12 11:51:20;;;;;;;9.93;3.88;;;;;;;-0.84;55.76;98013.03;5083044;28;20056;-60
2022/01/12 11:53:52;;;;;;;6.85;2.30;;;;;;;-0.90;56.62;98005.16;5085892;28;20056;-61
2022/01/12 11:56:24;;;;;;;5.13;2.78;;;;;;;-1.20;56.55;97942.66;5085371;28;20048;-60
2022/01/12 11:59:14;;;;;;;7.80;2.37;;;;;;;-1.05;55.47;98007.88;5084179;28;20063;-61
2022/01/12 12:01:53;;;;;;;7.03;1.98;;;;;;;-0.88;55.76;98028.25;5083537;28;20136;-61
2022/01/12 12:04:27;;;;;;;10.18;2.97;;;;;;;-0.70;55.67;97999.69;5085224;28;20048;-64
2022/01/12 12:07:12;;;;;;;5.10;1.65;;;;;;;-0.69;54.14;97993.13;5085014;28;20589;-63
2022/01/12 12:09:52;;;;;;;10.55;2.90;;;;;;;-0.61;54.84;98007.00;5083381;28;20050;-61
2022/01/12 12:12:27;;;;;;;9.52;4.28;;;;;;;-0.51;54.51;98000.72;5085288;28;20095;-61
2022/01/12 12:14:57;;;;;;;4.70;2.67;;;;;;;-0.88;52.81;97945.84;5084794;28;20518;-65
2022/01/12 12:17:28;;;;;;;5.30;2.83;;;;;;;-0.51;53.18;98006.16;5084675;28;20052;-61
2022/01/12 12:19:56;;;;;;;13.77;4.10;;;;;;;-0.51;52.66;98001.56;5083364;28;20077;-64
2022/01/12 12:22:34;;;;;;;5.20;2.53;;;;;;;-0.35;52.92;97994.16;5084671;28;20048;-64
2022/01/12 12:25:12;;;;;;;6.47;2.42;;;;;;;-0.23;52.35;98013.69;5084859;28;20131;-62
2022/01/12 12:27:41;;;;;;;7.90;2.03;;;;;;;-0.54;53.81;98006.72;5083063;28;20055;-62
2022/01/12 12:30:11;;;;;;;9.63;2.63;;;;;;;-0.35;54.77;97999.59;5085152;28;20113;-66
2022/01/12 12:32:38;;;;;;;8.93;3.22;;;;;;;-0.14;54.03;98014.75;5083611;28;20052;-66
2022/01/12 12:35:26;;;;;;;7.53;2.95;;;;;;;0.02;53.47;98019.03;5076564;28;20052;-66
2022/01/12 12:37:56;;;;;;;12.73;4.15;;;;;;;-0.11;52.67;98011.47;5083089;28;20056;-64
2022/01/12 12:40:41;;;;;;;10.85;3.92;;;;;;;0.01;52.03;98009.25;5083865;28;20064;-63
2022/01/12 12:43:15;;;;;;;13.25;7.13;;;;;;;-0.36;50.54;97957.13;5084228;28;20056;-63
2022/01/12 12:45:54;;;;;;;8.40;4.18;;;;;;;-0.19;51.30;98033.84;5083636;28;20067;-63
2022/01/12 12:48:40;;;;;;;6.50;3.08;;;;;;;-0.32;51.27;98031.69;5063736;28;20068;-66
2022/01/12 12:51:14;;;;;;;4.22;1.80;;;;;;;-0.42;51.26;98026.28;5063347;28;20060;-64
2022/01/12 12:53:46;;;;;;;7.72;2.90;;;;;;;-0.55;50.80;98029.56;5063208;28;20675;-63
2022/01/12 12:56:16;;;;;;;14.20;5.77;;;;;;;-0.83;51.51;98024.72;5063710;28;20060;-64
2022/01/12 12:58:54;;;;;;;11.38;5.00;;;;;;;-0.61;50.78;98007.00;5061853;28;20056;-67
2022/01/12 13:01:23;;;;;;;10.88;4.45;;;;;;;-0.76;52.45;98036.13;5061467;28;20063;-66
2022/01/12 13:03:59;;;;;;;8.38;3.60;;;;;;;-1.42;52.11;97944.84;5061466;28;20064;-65
2022/01/12 13:06:29;;;;;;;17.23;5.82;;;;;;;-1.24;51.96;97964.13;5062861;28;20048;-64
2022/01/12 13:09:04;;;;;;;8.98;3.65;;;;;;;-0.65;52.87;98040.47;5063100;28;20503;-63
2022/01/12 13:11:36;;;;;;;9.40;2.95;;;;;;;-0.79;52.54;98040.19;5063230;28;20060;-63
2022/01/12 13:14:05;;;;;;;8.05;3.97;;;;;;;-0.89;52.67;98061.16;5061395;28;20067;-63
2022/01/12 13:16:33;;;;;;;8.57;3.80;;;;;;;-1.00;51.95;98062.25;5063076;28;20059;-63
2022/01/12 13:19:21;;;;;;;15.27;4.80;;;;;;;-0.91;52.55;98056.00;5062841;28;20617;-64
2022/01/12 13:21:48;;;;;;;5.55;1.88;;;;;;;-0.72;51.97;98039.94;5062839;28;20056;-63
2022/01/12 13:24:16;;;;;;;6.13;2.13;;;;;;;-1.57;51.72;98003.50;5062944;28;20433;-66
2022/01/12 13:26:42;;;;;;;3.08;1.48;;;;;;;-1.07;52.54;98056.25;5061385;28;20048;-66
2022/01/12 13:29:13;;;;;;;4.75;1.48;;;;;;;-1.23;52.75;98065.50;5063052;28;20074;-64
2022/01/12 13:31:43;;;;;;;2.22;1.13;;;;;;;-1.34;52.50;98061.94;5063366;28;20864;-65
2022/01/12 13:34:13;;;;;;;3.65;2.03;;;;;;;-1.20;52.93;98056.81;5061873;28;20415;-66